Rison, Maryland
Current Conditions -  °F | °C
As of 8:56 AM on Thursday 23 Oct 2014 (Local Time) from KNYG Reporting Station
Broken Clouds Broken Clouds  
Wind Chill: 54°   Ceiling: 7500
Heat Index: 54°   Visibility: 10mi
Dew Point: 41°   Wind: 17mph
Humidity: 62%   Direction: 330°NNW
Pressure: 29.93"   Gusts: 26mph
Location:  38.5593°N, 77.1565°W
Report Text: KNYG 231256Z 33015G23KT 10SM SCT049 BKN075 12/05 A2993 RMK AO2 SLP135 T01220050 $
Loading
Personal Weather Stations






























Interactive Weather Map
Tropical Storm Tracking
New forecast layout! Learn more

10-Day Weather Forecast

Advertisements
Track Severe Weather on mobile